Time;durP1;ratioP1;P1;durP2;ratioP2;P2;SDS_P1;SDS_P2;PMS_P1;PMS_P2;Temp;Humidity;BMP_temperature;BMP_pressure;BME280_temperature;BME280_humidity;BME280_pressure;Samples;Min_cycle;Max_cycle;Signal;HPM_P1;HPM_P2
2023/09/16 00:02:07;;;;;;;8.70;6.00;;;;;15.60;100980.00;;;;4924075;29;20241;-69
2023/09/16 00:04:53;;;;;;;7.23;5.43;;;;;15.60;100982.00;;;;4917565;29;20593;-70
2023/09/16 00:07:40;;;;;;;7.33;5.33;;;;;15.50;100980.00;;;;4917025;29;20365;-68
2023/09/16 00:10:27;;;;;;;7.90;5.63;;;;;15.50;100983.00;;;;4926151;28;20251;-70
2023/09/16 00:13:13;;;;;;;7.20;5.47;;;;;15.50;100980.00;;;;4923361;29;20232;-70
2023/09/16 00:16:00;;;;;;;7.67;6.00;;;;;15.60;100980.00;;;;4917756;28;20233;-69
2023/09/16 00:18:46;;;;;;;9.03;5.90;;;;;15.50;100985.00;;;;4914438;28;20233;-69
2023/09/16 00:21:34;;;;;;;9.77;6.70;;;;;15.60;100979.00;;;;4920130;28;20363;-69
2023/09/16 00:24:23;;;;;;;7.83;6.10;;;;;15.60;100983.00;;;;4921863;29;20767;-69
2023/09/16 00:27:09;;;;;;;12.13;6.87;;;;;15.60;100981.00;;;;4921280;29;20372;-69
2023/09/16 00:29:56;;;;;;;8.17;5.97;;;;;15.70;100979.00;;;;4922844;29;20237;-69
2023/09/16 00:32:43;;;;;;;7.17;5.80;;;;;15.70;100979.00;;;;4925846;29;20274;-70
2023/09/16 00:35:29;;;;;;;10.53;6.20;;;;;15.70;100978.00;;;;4924559;29;20232;-71
2023/09/16 00:38:16;;;;;;;13.90;6.57;;;;;15.70;100981.00;;;;4911766;29;20236;-71
2023/09/16 00:41:03;;;;;;;11.50;6.73;;;;;15.80;100981.00;;;;4925133;29;20361;-70
2023/09/16 00:43:51;;;;;;;7.87;6.20;;;;;15.80;100974.00;;;;4922950;29;20247;-70
2023/09/16 00:46:38;;;;;;;9.47;6.73;;;;;15.80;100973.00;;;;4919642;29;20742;-70
2023/09/16 00:49:28;;;;;;;7.77;6.30;;;;;15.90;100972.00;;;;4916111;29;20251;-69
2023/09/16 00:52:16;;;;;;;10.53;7.27;;;;;15.90;100968.00;;;;4920781;29;20239;-68
2023/09/16 00:55:03;;;;;;;10.20;7.67;;;;;16.00;100974.00;;;;4913948;29;20220;-70
2023/09/16 00:57:53;;;;;;;10.47;7.87;;;;;16.00;100976.00;;;;4911242;29;20250;-70
2023/09/16 01:00:40;;;;;;;10.07;7.57;;;;;16.00;100982.00;;;;4913907;29;20252;-71
2023/09/16 01:03:28;;;;;;;12.60;7.60;;;;;16.00;100970.00;;;;4914659;29;20243;-67
2023/09/16 01:06:17;;;;;;;10.67;7.43;;;;;16.00;100959.00;;;;4919949;29;20725;-70
2023/09/16 01:09:04;;;;;;;15.67;8.47;;;;;16.10;100959.00;;;;4918254;29;21023;-70
2023/09/16 01:11:51;;;;;;;11.77;8.00;;;;;16.10;100958.00;;;;4917829;28;20262;-68
2023/09/16 01:14:39;;;;;;;13.60;8.13;;;;;16.10;100952.00;;;;4915968;29;20610;-70
2023/09/16 01:17:32;;;;;;;11.37;8.63;;;;;16.10;100964.00;;;;4913681;29;20246;-66
2023/09/16 01:20:19;;;;;;;11.37;8.87;;;;;16.10;100962.00;;;;4915252;28;20251;-68
2023/09/16 01:23:06;;;;;;;12.63;9.17;;;;;16.10;100950.00;;;;4922762;28;20236;-68
2023/09/16 01:25:53;;;;;;;13.50;9.40;;;;;16.20;100956.00;;;;4912123;29;20317;-68
2023/09/16 01:28:40;;;;;;;13.77;10.03;;;;;16.20;100952.00;;;;4922902;29;20316;-67
2023/09/16 01:31:26;;;;;;;14.13;9.70;;;;;16.30;100958.00;;;;4918789;29;20308;-70
2023/09/16 01:34:22;;;;;;;13.87;9.43;;;;;16.30;100947.00;;;;4920203;29;20240;-67
2023/09/16 01:37:13;;;;;;;12.83;9.77;;;;;16.30;100947.00;;;;4926162;28;20293;-70
2023/09/16 01:40:00;;;;;;;12.70;9.67;;;;;16.30;100953.00;;;;4924141;29;20269;-71
2023/09/16 01:42:48;;;;;;;14.90;10.33;;;;;16.30;100944.00;;;;4923144;28;20613;-70
2023/09/16 01:45:42;;;;;;;16.47;10.77;;;;;16.30;100954.00;;;;4919898;29;20236;-71
2023/09/16 01:48:28;;;;;;;15.90;11.17;;;;;16.40;100949.00;;;;4923735;29;20357;-68
2023/09/16 01:51:31;;;;;;;13.73;10.50;;;;;16.40;100949.00;;;;4920953;29;20232;-66
2023/09/16 01:54:18;;;;;;;15.67;10.57;;;;;16.50;100941.00;;;;4919930;28;20251;-71
2023/09/16 01:57:04;;;;;;;14.50;10.63;;;;;16.50;100946.00;;;;4919095;28;20236;-68
2023/09/16 01:59:53;;;;;;;14.23;10.40;;;;;16.50;100939.00;;;;4910975;28;20624;-70
2023/09/16 02:02:39;;;;;;;13.33;10.37;;;;;16.50;100944.00;;;;4917153;29;20245;-70
2023/09/16 02:05:26;;;;;;;16.27;10.80;;;;;16.50;100946.00;;;;4918247;28;20758;-69
2023/09/16 02:08:12;;;;;;;14.43;11.13;;;;;16.50;100949.00;;;;4917939;28;20233;-69
2023/09/16 02:10:58;;;;;;;15.43;11.10;;;;;16.50;100949.00;;;;4919924;29;20260;-70
2023/09/16 02:13:45;;;;;;;13.93;10.83;;;;;16.50;100947.00;;;;4927871;28;20297;-71
2023/09/16 02:16:33;;;;;;;17.73;11.03;;;;;16.50;100947.00;;;;4916191;28;20782;-70
2023/09/16 02:19:19;;;;;;;17.43;10.43;;;;;16.50;100944.00;;;;4919739;29;20233;-71
2023/09/16 02:22:06;;;;;;;16.30;10.87;;;;;16.50;100936.00;;;;4923810;28;20240;-68
2023/09/16 02:24:52;;;;;;;15.50;10.80;;;;;16.50;100932.00;;;;4925605;29;20734;-66
2023/09/16 02:27:38;;;;;;;14.30;10.67;;;;;16.50;100937.00;;;;4920303;28;20316;-69
2023/09/16 02:30:25;;;;;;;15.70;11.20;;;;;16.50;100937.00;;;;4920928;29;20843;-68
2023/09/16 02:33:13;;;;;;;15.60;10.60;;;;;16.50;100928.00;;;;4929157;29;20381;-67
2023/09/16 02:35:59;;;;;;;14.70;10.40;;;;;16.50;100930.00;;;;4924430;29;20316;-70
2023/09/16 02:38:48;;;;;;;14.60;9.87;;;;;16.50;100938.00;;;;4923799;28;20640;-70
2023/09/16 02:41:34;;;;;;;12.63;10.30;;;;;16.40;100932.00;;;;4918297;28;20249;-68
2023/09/16 02:44:21;;;;;;;13.63;9.53;;;;;16.40;100931.00;;;;4922628;29;21010;-70
2023/09/16 02:47:07;;;;;;;12.27;9.60;;;;;16.40;100932.00;;;;4912802;29;20241;-70
2023/09/16 02:49:55;;;;;;;14.83;9.97;;;;;16.40;100930.00;;;;4917307;28;20245;-70
2023/09/16 02:52:41;;;;;;;13.77;9.80;;;;;16.40;100926.00;;;;4911224;29;20249;-70
2023/09/16 02:55:28;;;;;;;13.60;10.13;;;;;16.30;100923.00;;;;4918148;29;20292;-69
2023/09/16 02:58:14;;;;;;;15.47;10.27;;;;;16.30;100919.00;;;;4919549;29;20233;-71
2023/09/16 03:01:01;;;;;;;16.50;11.03;;;;;16.30;100923.00;;;;4920884;29;20687;-70
2023/09/16 03:03:47;;;;;;;16.23;10.23;;;;;16.30;100921.00;;;;4925812;28;20296;-69
2023/09/16 03:06:35;;;;;;;14.17;9.77;;;;;16.30;100922.00;;;;4925963;29;20233;-69
2023/09/16 03:09:22;;;;;;;12.43;9.77;;;;;16.30;100914.00;;;;4924596;29;20722;-70
2023/09/16 03:12:08;;;;;;;11.80;9.40;;;;;16.20;100921.00;;;;4919966;29;20272;-68
2023/09/16 03:14:54;;;;;;;15.10;9.93;;;;;16.20;100914.00;;;;4919540;29;20236;-69
2023/09/16 03:17:40;;;;;;;14.90;10.70;;;;;16.20;100913.00;;;;4917992;29;20287;-70
2023/09/16 03:20:43;;;;;;;14.40;10.43;;;;;16.20;100909.00;;;;4926656;29;20311;-70
2023/09/16 03:23:31;;;;;;;13.40;10.20;;;;;16.30;100911.00;;;;4919628;28;20872;-72
2023/09/16 03:26:17;;;;;;;15.53;11.30;;;;;16.30;100909.00;;;;4927922;29;20280;-70
2023/09/16 03:29:04;;;;;;;14.67;9.97;;;;;16.30;100914.00;;;;4921300;28;20757;-71
2023/09/16 03:31:50;;;;;;;14.30;9.53;;;;;16.30;100912.00;;;;4926063;29;20315;-71
2023/09/16 03:34:36;;;;;;;16.13;10.20;;;;;16.30;100901.00;;;;4912922;28;20346;-70
2023/09/16 03:37:23;;;;;;;13.43;9.70;;;;;16.20;100909.00;;;;4920289;28;20377;-70
2023/09/16 03:40:11;;;;;;;12.83;10.10;;;;;16.20;100901.00;;;;4917131;29;20778;-71
2023/09/16 03:42:57;;;;;;;16.30;10.17;;;;;16.20;100899.00;;;;4920325;29;20249;-71
2023/09/16 03:45:43;;;;;;;13.80;10.27;;;;;16.20;100892.00;;;;4917833;29;20240;-68
2023/09/16 03:48:30;;;;;;;13.20;9.97;;;;;16.20;100886.00;;;;4918518;28;21010;-70
2023/09/16 03:51:16;;;;;;;14.77;10.70;;;;;16.20;100897.00;;;;4916830;28;20981;-67
2023/09/16 03:54:04;;;;;;;15.67;10.53;;;;;16.20;100900.00;;;;4927184;29;20382;-70
2023/09/16 03:56:51;;;;;;;13.63;10.60;;;;;16.20;100899.00;;;;4924622;29;20673;-69
2023/09/16 03:59:38;;;;;;;13.27;9.43;;;;;16.10;100897.00;;;;4926360;29;20232;-67
2023/09/16 04:02:24;;;;;;;12.33;9.30;;;;;16.10;100891.00;;;;4924951;29;20613;-70
2023/09/16 04:05:10;;;;;;;14.10;9.57;;;;;16.00;100881.00;;;;4911387;29;20233;-66
2023/09/16 04:07:57;;;;;;;12.00;9.37;;;;;15.90;100894.00;;;;4922832;29;20242;-70
2023/09/16 04:10:43;;;;;;;13.67;9.57;;;;;15.90;100890.00;;;;4921902;29;20243;-70
2023/09/16 04:13:31;;;;;;;12.70;9.20;;;;;15.90;100876.00;;;;4916666;29;20233;-69
2023/09/16 04:16:17;;;;;;;13.83;9.53;;;;;15.80;100886.00;;;;4922062;29;20296;-70
2023/09/16 04:19:03;;;;;;;12.50;9.37;;;;;15.80;100882.00;;;;4920075;29;20693;-70
2023/09/16 04:21:51;;;;;;;12.87;9.57;;;;;15.70;100873.00;;;;4921547;29;20907;-70
2023/09/16 04:24:37;;;;;;;12.07;9.30;;;;;15.70;100877.00;;;;4918261;29;20237;-69
2023/09/16 04:27:23;;;;;;;11.93;9.33;;;;;15.70;100883.00;;;;4922627;28;20240;-66
2023/09/16 04:30:12;;;;;;;16.23;9.20;;;;;15.70;100891.00;;;;4913088;28;20606;-69
2023/09/16 04:32:58;;;;;;;13.63;8.47;;;;;15.60;100885.00;;;;4916752;29;20763;-69
2023/09/16 04:35:45;;;;;;;11.23;8.50;;;;;15.60;100882.00;;;;4922784;28;20237;-70
2023/09/16 04:38:31;;;;;;;11.47;8.80;;;;;15.60;100888.00;;;;4911297;29;20228;-68
2023/09/16 04:41:20;;;;;;;12.63;8.40;;;;;15.60;100874.00;;;;4917546;29;20243;-70
2023/09/16 04:44:08;;;;;;;11.50;8.27;;;;;15.70;100879.00;;;;4924926;29;20722;-70
2023/09/16 04:46:56;;;;;;;13.33;8.33;;;;;15.70;100879.00;;;;4918908;29;20362;-68
2023/09/16 04:49:43;;;;;;;11.27;8.10;;;;;15.60;100878.00;;;;4911490;29;20314;-70
2023/09/16 04:52:29;;;;;;;15.47;9.20;;;;;15.60;100881.00;;;;4925119;29;20621;-69
2023/09/16 04:55:16;;;;;;;14.03;8.80;;;;;15.60;100882.00;;;;4924439;28;20237;-71
2023/09/16 04:58:03;;;;;;;12.03;8.70;;;;;15.60;100882.00;;;;4912259;29;20373;-69
2023/09/16 05:00:49;;;;;;;14.23;8.67;;;;;15.60;100880.00;;;;4911123;29;20236;-69
2023/09/16 05:03:37;;;;;;;12.67;7.63;;;;;15.60;100874.00;;;;4913249;29;24567;-69
2023/09/16 05:06:23;;;;;;;11.33;7.57;;;;;15.50;100865.00;;;;4919810;29;20237;-70
2023/09/16 05:09:09;;;;;;;13.43;8.33;;;;;15.50;100876.00;;;;4919163;29;20232;-68
2023/09/16 05:11:56;;;;;;;10.67;8.30;;;;;15.50;100867.00;;;;4926662;28;20363;-70
2023/09/16 05:14:42;;;;;;;11.73;8.37;;;;;15.40;100880.00;;;;4917208;28;20236;-68
2023/09/16 05:17:28;;;;;;;10.00;7.50;;;;;15.40;100882.00;;;;4924765;29;20254;-70
2023/09/16 05:20:16;;;;;;;14.17;9.00;;;;;15.40;100884.00;;;;4929032;29;20319;-70
2023/09/16 05:23:02;;;;;;;13.33;8.53;;;;;15.40;100876.00;;;;4924599;29;20630;-69
2023/09/16 05:25:50;;;;;;;11.43;8.63;;;;;15.40;100880.00;;;;4931042;29;20287;-69
2023/09/16 05:28:36;;;;;;;12.03;8.97;;;;;15.30;100883.00;;;;4919709;28;20255;-71
2023/09/16 05:31:23;;;;;;;11.37;8.43;;;;;15.40;100894.00;;;;4923212;28;20369;-68
2023/09/16 05:34:10;;;;;;;13.17;8.20;;;;;15.30;100884.00;;;;4922384;29;20241;-70
2023/09/16 05:36:57;;;;;;;13.20;8.70;;;;;15.30;100881.00;;;;4922909;28;20730;-70
2023/09/16 05:39:43;;;;;;;11.57;8.00;;;;;15.30;100876.00;;;;4918536;29;20689;-70
2023/09/16 05:42:30;;;;;;;12.30;8.70;;;;;15.30;100881.00;;;;4919309;29;20242;-68
2023/09/16 05:45:17;;;;;;;12.53;8.93;;;;;15.30;100883.00;;;;4919142;29;20300;-69
2023/09/16 05:48:04;;;;;;;10.60;8.30;;;;;15.30;100873.00;;;;4923383;28;20239;-68
2023/09/16 05:50:57;;;;;;;11.57;8.27;;;;;15.30;100878.00;;;;4921419;29;20241;-69
2023/09/16 05:53:45;;;;;;;10.03;8.37;;;;;15.30;100877.00;;;;4918976;29;20826;-68
2023/09/16 05:56:32;;;;;;;10.97;8.27;;;;;15.40;100875.00;;;;4912390;29;20225;-68
2023/09/16 05:59:19;;;;;;;11.17;8.03;;;;;15.30;100884.00;;;;4925966;28;20244;-70
2023/09/16 06:02:08;;;;;;;12.60;8.17;;;;;15.40;100879.00;;;;4928527;28;20271;-70
2023/09/16 06:04:54;;;;;;;12.37;8.53;;;;;15.40;100867.00;;;;4918942;29;20259;-68
2023/09/16 06:07:41;;;;;;;11.37;8.03;;;;;15.50;100873.00;;;;4926207;29;21021;-69
2023/09/16 06:10:29;;;;;;;12.50;8.67;;;;;15.60;100879.00;;;;4924305;29;20609;-71
2023/09/16 06:13:15;;;;;;;11.20;8.83;;;;;15.60;100880.00;;;;4926969;28;20240;-68
2023/09/16 06:16:01;;;;;;;13.43;9.30;;;;;15.70;100872.00;;;;4926875;29;20663;-68
2023/09/16 06:18:51;;;;;;;12.60;8.77;;;;;15.80;100880.00;;;;4921896;29;20260;-70
2023/09/16 06:21:38;;;;;;;12.27;8.90;;;;;15.80;100885.00;;;;4922686;29;20894;-70
2023/09/16 06:24:25;;;;;;;12.47;9.40;;;;;15.90;100891.00;;;;4922646;29;20367;-68
2023/09/16 06:27:14;;;;;;;14.30;9.70;;;;;15.90;100896.00;;;;4915633;29;20235;-68
2023/09/16 06:30:00;;;;;;;14.73;9.50;;;;;16.00;100890.00;;;;4926302;29;20304;-66
2023/09/16 06:32:47;;;;;;;16.90;10.27;;;;;16.10;100889.00;;;;4911558;29;20245;-69
2023/09/16 06:35:33;;;;;;;15.00;9.60;;;;;16.10;100888.00;;;;4926923;29;20262;-69
2023/09/16 06:38:20;;;;;;;14.07;9.33;;;;;16.20;100887.00;;;;4924708;29;20236;-71
2023/09/16 06:41:06;;;;;;;13.77;10.17;;;;;16.30;100886.00;;;;4924658;29;20362;-70
2023/09/16 06:43:54;;;;;;;14.30;10.63;;;;;16.30;100887.00;;;;4928890;29;20365;-66
2023/09/16 06:46:40;;;;;;;16.90;10.63;;;;;16.40;100879.00;;;;4924964;29;20280;-70
2023/09/16 06:49:27;;;;;;;13.70;10.27;;;;;16.50;100889.00;;;;4915183;29;20241;-69
2023/09/16 06:52:13;;;;;;;16.00;10.53;;;;;16.50;100889.00;;;;4923805;28;20232;-67
2023/09/16 06:54:59;;;;;;;15.10;10.17;;;;;16.60;100891.00;;;;4924783;29;20381;-69
2023/09/16 06:57:45;;;;;;;13.50;10.47;;;;;16.70;100897.00;;;;4927591;29;20886;-70
2023/09/16 07:00:33;;;;;;;12.43;9.50;;;;;16.70;100881.00;;;;4922223;29;20324;-69
2023/09/16 07:03:19;;;;;;;14.23;9.40;;;;;16.80;100884.00;;;;4915800;29;20276;-69
2023/09/16 07:06:05;;;;;;;12.07;9.53;;;;;16.90;100888.00;;;;4922746;29;20727;-70
2023/09/16 07:08:52;;;;;;;16.30;9.30;;;;;17.00;100887.00;;;;4917883;29;20240;-69
2023/09/16 07:11:38;;;;;;;16.03;9.27;;;;;17.00;100891.00;;;;4925444;29;20229;-71
2023/09/16 07:14:25;;;;;;;13.17;8.97;;;;;17.10;100883.00;;;;4917161;28;20238;-72
2023/09/16 07:17:13;;;;;;;12.53;9.10;;;;;17.20;100873.00;;;;4920774;28;20316;-70
2023/09/16 07:20:00;;;;;;;12.10;7.87;;;;;17.30;100883.00;;;;4928041;29;20261;-68
2023/09/16 07:22:46;;;;;;;11.83;7.60;;;;;17.30;100884.00;;;;4919629;29;20245;-71
2023/09/16 07:25:32;;;;;;;11.80;8.00;;;;;17.40;100886.00;;;;4923043;29;20754;-69
2023/09/16 07:28:19;;;;;;;10.17;7.27;;;;;17.50;100888.00;;;;4924972;29;20236;-70
2023/09/16 07:31:07;;;;;;;9.53;7.20;;;;;17.60;100894.00;;;;4918805;28;20233;-69
2023/09/16 07:33:55;;;;;;;9.93;7.43;;;;;17.70;100891.00;;;;4915507;29;20619;-68
2023/09/16 07:36:41;;;;;;;10.43;7.03;;;;;17.80;100888.00;;;;4916341;29;20254;-70
2023/09/16 07:39:29;;;;;;;9.70;7.53;;;;;17.90;100880.00;;;;4917742;29;20240;-70
2023/09/16 07:42:15;;;;;;;11.87;7.60;;;;;18.00;100878.00;;;;4921841;29;20253;-70
2023/09/16 07:45:02;;;;;;;9.20;6.93;;;;;18.10;100875.00;;;;4919050;28;20233;-69
2023/09/16 07:47:48;;;;;;;11.60;6.70;;;;;18.20;100886.00;;;;4914649;28;20281;-69
2023/09/16 07:50:36;;;;;;;9.03;6.60;;;;;18.20;100878.00;;;;4914812;29;20367;-69
2023/09/16 07:53:23;;;;;;;8.77;5.90;;;;;18.30;100884.00;;;;4916575;28;20305;-71
2023/09/16 07:56:09;;;;;;;10.87;5.97;;;;;18.40;100878.00;;;;4917864;29;20229;-69
2023/09/16 07:58:55;;;;;;;9.23;6.20;;;;;18.50;100879.00;;;;4919729;29;20229;-69
2023/09/16 08:01:41;;;;;;;7.77;5.67;;;;;18.50;100886.00;;;;4920866;28;20226;-70
2023/09/16 08:04:27;;;;;;;9.50;6.40;;;;;18.70;100889.00;;;;4918445;29;20244;-70
2023/09/16 08:07:16;;;;;;;10.50;5.70;;;;;18.80;100894.00;;;;4917711;29;20237;-71
2023/09/16 08:10:02;;;;;;;9.10;5.57;;;;;19.00;100885.00;;;;4924389;29;20296;-69
2023/09/16 08:12:48;;;;;;;7.20;5.40;;;;;19.10;100889.00;;;;4923703;28;20610;-72
2023/09/16 08:15:35;;;;;;;10.77;5.73;;;;;19.20;100888.00;;;;4922208;28;20310;-73
2023/09/16 08:18:22;;;;;;;7.43;5.13;;;;;19.30;100892.00;;;;4923981;29;20230;-74
2023/09/16 08:21:08;;;;;;;15.53;6.20;;;;;19.40;100905.00;;;;4919046;29;20228;-71
2023/09/16 08:23:56;;;;;;;6.70;4.70;;;;;19.40;100897.00;;;;4918923;29;20244;-72
2023/09/16 08:26:42;;;;;;;8.90;4.90;;;;;19.50;100898.00;;;;4923388;29;20257;-72
2023/09/16 08:29:29;;;;;;;8.97;4.70;;;;;19.60;100904.00;;;;4915090;28;20252;-74
2023/09/16 08:32:15;;;;;;;8.20;4.50;;;;;19.70;100901.00;;;;4916566;29;20305;-72
2023/09/16 08:35:01;;;;;;;9.97;5.07;;;;;19.90;100915.00;;;;4922370;29;20245;-70
2023/09/16 08:37:48;;;;;;;6.70;4.67;;;;;20.00;100912.00;;;;4923203;29;20237;-70
2023/09/16 08:40:36;;;;;;;8.80;4.77;;;;;20.20;100915.00;;;;4916054;28;20366;-69
2023/09/16 08:43:28;;;;;;;5.53;4.80;;;;;20.30;100915.00;;;;4918244;29;20370;-70
2023/09/16 08:46:17;;;;;;;6.10;4.77;;;;;20.50;100910.00;;;;4917206;29;20338;-72
2023/09/16 08:49:08;;;;;;;9.83;4.60;;;;;20.60;100915.00;;;;4914805;28;21022;-71
2023/09/16 08:52:00;;;;;;;7.13;4.67;;;;;20.70;100912.00;;;;4918888;29;20232;-74
2023/09/16 08:54:48;;;;;;;13.03;4.80;;;;;20.90;100915.00;;;;4919144;28;20249;-72
2023/09/16 08:57:36;;;;;;;8.80;4.10;;;;;21.00;100929.00;;;;4913401;29;20612;-72
2023/09/16 09:00:23;;;;;;;5.83;4.30;;;;;21.10;100916.00;;;;4922419;29;20267;-71
2023/09/16 09:03:09;;;;;;;12.67;4.60;;;;;21.20;100911.00;;;;4915278;29;20241;-71
2023/09/16 09:05:56;;;;;;;8.80;4.43;;;;;21.40;100910.00;;;;4917568;29;20753;-73
2023/09/16 09:08:42;;;;;;;5.27;3.97;;;;;21.50;100912.00;;;;4915579;28;20773;-73
2023/09/16 09:11:31;;;;;;;11.07;4.63;;;;;21.60;100906.00;;;;4923114;29;20230;-71
2023/09/16 09:14:20;;;;;;;5.23;3.53;;;;;21.70;100899.00;;;;4914038;28;20236;-72
2023/09/16 09:17:10;;;;;;;6.17;3.83;;;;;21.80;100907.00;;;;4920892;29;20292;-72
2023/09/16 09:19:56;;;;;;;4.40;3.90;;;;;22.00;100907.00;;;;4920346;28;20291;-72
2023/09/16 09:22:43;;;;;;;6.63;4.07;;;;;22.10;100905.00;;;;4918838;29;20229;-71
2023/09/16 09:25:31;;;;;;;6.00;3.70;;;;;22.30;100922.00;;;;4914590;29;20358;-72
2023/09/16 09:28:17;;;;;;;4.63;3.90;;;;;22.50;100908.00;;;;4914715;28;20333;-74
2023/09/16 09:31:05;;;;;;;7.13;3.83;;;;;22.60;100917.00;;;;4915990;29;20297;-71
2023/09/16 09:33:51;;;;;;;5.33;4.20;;;;;22.70;100916.00;;;;4921896;29;20753;-71
2023/09/16 09:36:38;;;;;;;5.33;3.97;;;;;22.90;100911.00;;;;4924398;29;20466;-72
2023/09/16 09:39:24;;;;;;;6.10;4.50;;;;;23.00;100909.00;;;;4919856;29;20233;-73
2023/09/16 09:42:11;;;;;;;5.10;3.83;;;;;23.20;100906.00;;;;4916120;29;20345;-73
2023/09/16 09:45:01;;;;;;;4.60;4.07;;;;;23.30;100904.00;;;;4918131;29;20238;-72
2023/09/16 09:47:51;;;;;;;4.20;3.80;;;;;23.20;100905.00;;;;4919456;28;20241;-72
2023/09/16 09:50:37;;;;;;;4.17;3.77;;;;;23.50;100900.00;;;;4919554;28;20620;-74
2023/09/16 09:53:24;;;;;;;7.57;4.00;;;;;23.60;100908.00;;;;4924023;28;20280;-72
2023/09/16 09:56:12;;;;;;;5.13;3.80;;;;;23.80;100903.00;;;;4915829;29;20282;-70
2023/09/16 09:58:59;;;;;;;5.37;4.00;;;;;23.80;100896.00;;;;4918390;29;20277;-70
2023/09/16 10:01:46;;;;;;;5.53;3.97;;;;;23.90;100899.00;;;;4917523;29;20790;-73
2023/09/16 10:04:33;;;;;;;7.43;4.30;;;;;24.00;100908.00;;;;4926500;29;20983;-74
2023/09/16 10:07:21;;;;;;;6.73;4.23;;;;;24.20;100903.00;;;;4923575;29;20657;-72
2023/09/16 10:10:13;;;;;;;9.03;4.00;;;;;24.10;100903.00;;;;4915836;29;20602;-73
2023/09/16 10:12:59;;;;;;;6.30;4.13;;;;;24.10;100906.00;;;;4921467;28;20241;-71
2023/09/16 10:15:47;;;;;;;5.90;4.50;;;;;24.10;100909.00;;;;4917434;29;20380;-72
2023/09/16 10:18:33;;;;;;;6.90;4.13;;;;;24.20;100911.00;;;;4919540;29;20252;-73
2023/09/16 10:21:21;;;;;;;4.57;4.17;;;;;24.40;100905.00;;;;4927227;29;20236;-72
2023/09/16 10:24:08;;;;;;;4.90;4.13;;;;;24.40;100908.00;;;;4926896;29;20398;-71
2023/09/16 10:26:56;;;;;;;7.80;4.27;;;;;24.60;100910.00;;;;4927226;29;20230;-72
2023/09/16 10:29:43;;;;;;;5.27;4.10;;;;;24.80;100908.00;;;;4919430;29;20244;-73
2023/09/16 10:32:30;;;;;;;7.10;4.13;;;;;24.90;100913.00;;;;4921968;29;20232;-72
2023/09/16 10:35:17;;;;;;;6.57;4.27;;;;;24.90;100918.00;;;;4914680;29;20618;-73
2023/09/16 10:38:07;;;;;;;7.93;4.60;;;;;24.90;100911.00;;;;4922524;29;20361;-72
2023/09/16 10:40:54;;;;;;;4.70;4.25;;;;;24.90;100918.00;;;;4920256;29;20236;-75
2023/09/16 10:43:40;;;;;;;4.57;4.17;;;;;24.90;100917.00;;;;4926272;29;20354;-75
2023/09/16 10:46:27;;;;;;;6.45;4.43;;;;;25.10;100914.00;;;;4919263;28;20620;-74
2023/09/16 10:49:14;;;;;;;5.13;4.28;;;;;25.20;100916.00;;;;4924226;28;20233;-71
2023/09/16 10:52:08;;;;;;;9.15;4.45;;;;;25.30;100915.00;;;;4930537;28;20233;-73
2023/09/16 10:55:04;;;;;;;7.32;4.30;;;;;25.60;100909.00;;;;4920001;29;20257;-72
2023/09/16 10:57:58;;;;;;;5.57;4.43;;;;;25.80;100909.00;;;;4918500;29;20609;-72
2023/09/16 11:00:49;;;;;;;5.45;4.55;;;;;25.80;100909.00;;;;4925569;28;20334;-72
2023/09/16 11:03:39;;;;;;;8.25;4.50;;;;;25.70;100914.00;;;;4916779;29;20793;-72
2023/09/16 11:06:26;;;;;;;4.88;4.35;;;;;25.80;100914.00;;;;4923388;28;20248;-72
2023/09/16 11:09:12;;;;;;;6.47;4.32;;;;;25.70;100908.00;;;;4928822;29;20316;-72
2023/09/16 11:12:01;;;;;;;5.75;4.50;;;;;25.70;100917.00;;;;4920924;29;20606;-73
2023/09/16 11:14:47;;;;;;;6.60;5.05;;;;;25.70;100911.00;;;;4921929;29;20229;-71
2023/09/16 11:17:34;;;;;;;4.93;4.40;;;;;25.70;100908.00;;;;4925930;29;20713;-75
2023/09/16 11:20:21;;;;;;;7.15;4.30;;;;;25.90;100903.00;;;;4919627;29;20277;-73
2023/09/16 11:23:09;;;;;;;6.43;5.05;;;;;26.10;100906.00;;;;4926398;28;20426;-73
2023/09/16 11:25:57;;;;;;;5.18;4.45;;;;;26.10;100898.00;;;;4920695;28;20245;-74
2023/09/16 11:28:45;;;;;;;5.60;4.65;;;;;26.20;100903.00;;;;4915068;29;20245;-75
2023/09/16 11:31:31;;;;;;;5.30;4.63;;;;;26.30;100889.00;;;;4928537;29;20361;-73
2023/09/16 11:34:19;;;;;;;6.50;4.70;;;;;26.40;100888.00;;;;4927436;29;20240;-74
2023/09/16 11:37:10;;;;;;;7.38;4.50;;;;;26.60;100897.00;;;;4921114;29;20273;-72
2023/09/16 11:40:00;;;;;;;6.75;5.05;;;;;26.60;100892.00;;;;4927199;28;20233;-72
2023/09/16 11:42:47;;;;;;;6.57;5.20;;;;;26.60;100886.00;;;;4927237;28;20742;-72
2023/09/16 11:45:35;;;;;;;6.88;5.25;;;;;26.60;100879.00;;;;4919823;29;20742;-72
2023/09/16 11:48:22;;;;;;;6.63;4.78;;;;;26.70;100874.00;;;;4925905;29;20232;-69
2023/09/16 11:51:13;;;;;;;6.03;5.13;;;;;26.90;100877.00;;;;4922170;29;20240;-72
2023/09/16 11:54:00;;;;;;;6.45;5.10;;;;;27.00;100875.00;;;;4928256;29;20365;-71
2023/09/16 11:56:47;;;;;;;6.25;4.80;;;;;27.20;100874.00;;;;4921462;29;20243;-72
2023/09/16 11:59:34;;;;;;;6.97;5.20;;;;;27.20;100876.00;;;;4925588;29;20236;-73
2023/09/16 12:02:22;;;;;;;5.60;5.03;;;;;27.10;100868.00;;;;4919830;29;20236;-74
2023/09/16 12:05:10;;;;;;;6.68;5.28;;;;;27.10;100874.00;;;;4925459;29;20316;-73
2023/09/16 12:07:56;;;;;;;6.70;5.55;;;;;27.10;100873.00;;;;4915954;29;20240;-71
2023/09/16 12:10:42;;;;;;;6.95;5.28;;;;;26.80;100879.00;;;;4922980;29;20259;-69
2023/09/16 12:13:31;;;;;;;8.05;5.30;;;;;26.90;100875.00;;;;4919190;28;20314;-72
2023/09/16 12:16:17;;;;;;;5.38;4.88;;;;;26.90;100882.00;;;;4914850;28;20320;-72
2023/09/16 12:19:06;;;;;;;5.97;5.38;;;;;27.00;100873.00;;;;4909986;29;20233;-73
2023/09/16 12:21:54;;;;;;;5.93;5.32;;;;;27.20;100880.00;;;;4909305;29;20234;-72
2023/09/16 12:24:41;;;;;;;7.15;5.32;;;;;27.30;100872.00;;;;4917483;29;20244;-71
2023/09/16 12:27:27;;;;;;;5.97;4.95;;;;;27.30;100874.00;;;;4918629;28;20232;-72
2023/09/16 12:30:14;;;;;;;7.43;5.25;;;;;27.30;100869.00;;;;4917194;29;20933;-72
2023/09/16 12:33:01;;;;;;;6.75;5.13;;;;;27.30;100870.00;;;;4925444;29;20304;-70
2023/09/16 12:35:52;;;;;;;6.00;5.38;;;;;27.20;100873.00;;;;4924955;29;20236;-72
2023/09/16 12:38:39;;;;;;;8.48;5.80;;;;;27.20;100866.00;;;;4922578;29;20731;-72
2023/09/16 12:41:26;;;;;;;9.73;5.43;;;;;27.30;100864.00;;;;4926239;29;20233;-71
2023/09/16 12:44:13;;;;;;;5.82;5.25;;;;;27.30;100865.00;;;;4920479;29;20312;-73
2023/09/16 12:47:00;;;;;;;6.88;5.28;;;;;27.30;100861.00;;;;4918808;29;20330;-68
2023/09/16 12:49:48;;;;;;;6.30;5.35;;;;;27.40;100864.00;;;;4909983;29;20719;-72
2023/09/16 12:52:36;;;;;;;5.43;4.93;;;;;27.50;100859.00;;;;4926125;29;20817;-71
2023/09/16 12:55:25;;;;;;;5.38;4.88;;;;;27.70;100860.00;;;;4916447;29;20237;-71
2023/09/16 12:58:11;;;;;;;6.47;5.35;;;;;27.60;100861.00;;;;4919200;29;20236;-70
2023/09/16 13:00:58;;;;;;;8.27;5.40;;;;;27.60;100856.00;;;;4917021;29;20256;-69
2023/09/16 13:03:45;;;;;;;7.50;5.60;;;;;27.50;100856.00;;;;4918287;29;20236;-71
2023/09/16 13:06:31;;;;;;;6.72;5.57;;;;;27.40;100856.00;;;;4922575;29;20240;-71
2023/09/16 13:09:20;;;;;;;5.95;5.35;;;;;27.40;100861.00;;;;4923529;29;20233;-68
2023/09/16 13:12:07;;;;;;;7.72;6.07;;;;;27.60;100857.00;;;;4924448;29;20234;-70
2023/09/16 13:14:53;;;;;;;7.53;5.40;;;;;27.80;100856.00;;;;4921935;29;20256;-72
2023/09/16 13:17:41;;;;;;;8.10;5.50;;;;;28.10;100857.00;;;;4923530;29;20236;-72
2023/09/16 13:20:32;;;;;;;7.05;5.45;;;;;28.10;100855.00;;;;4921730;29;20361;-72
2023/09/16 13:23:24;;;;;;;6.07;5.47;;;;;28.00;100852.00;;;;4917709;29;20241;-69
2023/09/16 13:26:14;;;;;;;5.53;4.93;;;;;27.90;100847.00;;;;4922324;28;20308;-72
2023/09/16 13:29:02;;;;;;;7.18;5.70;;;;;27.90;100856.00;;;;4919489;28;20237;-72
2023/09/16 13:31:59;;;;;;;6.53;5.07;;;;;28.00;100852.00;;;;4914381;29;20233;-69
2023/09/16 13:34:45;;;;;;;8.45;5.75;;;;;27.80;100854.00;;;;4916794;29;20237;-73
2023/09/16 13:37:32;;;;;;;6.28;5.50;;;;;27.50;100856.00;;;;4914340;29;20231;-73
2023/09/16 13:40:21;;;;;;;9.63;5.80;;;;;27.50;100853.00;;;;4918823;28;20718;-71